Time;durP1;ratioP1;P1;durP2;ratioP2;P2;SDS_P1;SDS_P2;PMS_P1;PMS_P2;Temp;Humidity;BMP_temperature;BMP_pressure;BME280_temperature;BME280_humidity;BME280_pressure;Samples;Min_cycle;Max_cycle;Signal;HPM_P1;HPM_P2
2023/07/13 00:04:42;;;;;;;0.93;0.47;;;;;;;19.97;39.33;99856.91;10423028;28;20049;-61
2023/07/13 00:09:44;;;;;;;2.72;1.33;;;;;;;19.92;39.27;99862.69;10424552;28;20049;-61
2023/07/13 00:14:46;;;;;;;3.03;0.50;;;;;;;20.07;38.98;99860.31;10421084;28;20045;-61
2023/07/13 00:19:48;;;;;;;0.75;0.60;;;;;;;20.03;38.74;99854.47;10424327;28;20107;-61
2023/07/13 00:24:51;;;;;;;1.85;0.70;;;;;;;19.92;38.84;99854.72;10410277;28;20063;-61
2023/07/13 00:29:53;;;;;;;1.08;0.60;;;;;;;19.82;38.98;99856.63;10422703;28;20049;-61
2023/07/13 00:34:56;;;;;;;0.43;0.43;;;;;;;19.87;38.93;99854.31;10437516;28;20608;-61
2023/07/13 00:39:58;;;;;;;0.73;0.60;;;;;;;19.85;38.89;99858.13;10422501;28;20663;-61
2023/07/13 00:45:11;;;;;;;1.27;0.65;;;;;;;19.84;38.87;99854.66;10426147;28;20048;-61
2023/07/13 00:50:16;;;;;;;1.90;0.70;;;;;;;19.83;38.75;99860.94;10424806;28;20491;-61
2023/07/13 00:55:19;;;;;;;1.08;0.77;;;;;;;19.82;38.64;99869.88;10422505;28;20055;-61
2023/07/13 01:00:22;;;;;;;1.25;0.60;;;;;;;19.82;38.65;99869.03;10421699;28;20052;-61
2023/07/13 01:05:25;;;;;;;1.17;0.90;;;;;;;19.75;38.95;99863.47;10423535;28;20410;-61
2023/07/13 01:10:28;;;;;;;1.45;0.45;;;;;;;19.48;39.38;99860.91;10393279;28;20052;-61
2023/07/13 01:15:33;;;;;;;0.57;0.47;;;;;;;19.27;39.46;99857.66;10416482;28;20053;-61
2023/07/13 01:20:37;;;;;;;0.40;0.40;;;;;;;19.12;39.47;99852.03;10420459;28;20087;-61
2023/07/13 01:25:39;;;;;;;0.28;0.25;;;;;;;19.15;39.29;99856.22;10418325;28;20131;-61
2023/07/13 01:30:41;;;;;;;0.38;0.38;;;;;;;19.01;40.47;99854.81;10423656;28;20135;-61
2023/07/13 01:35:44;;;;;;;0.57;0.50;;;;;;;18.73;40.99;99866.38;10419112;28;20158;-61
2023/07/13 01:40:46;;;;;;;0.50;0.50;;;;;;;18.45;41.90;99860.22;10422064;28;20063;-61
2023/07/13 01:45:48;;;;;;;0.57;0.55;;;;;;;18.13;42.83;99858.84;10435576;28;20057;-61
2023/07/13 01:50:50;;;;;;;0.70;0.70;;;;;;;17.92;43.37;99860.78;10421469;28;20037;-61
2023/07/13 01:55:52;;;;;;;0.98;0.70;;;;;;;17.73;44.33;99869.56;10422437;28;20055;-61
2023/07/13 02:00:54;;;;;;;1.38;0.88;;;;;;;17.63;43.54;99871.38;10429129;28;20045;-61
2023/07/13 02:05:56;;;;;;;0.98;0.80;;;;;;;17.61;43.82;99879.44;10437684;28;20127;-61
2023/07/13 02:10:58;;;;;;;0.57;0.57;;;;;;;17.42;44.46;99878.59;10437730;28;20041;-61
2023/07/13 02:16:00;;;;;;;0.82;0.50;;;;;;;17.24;44.81;99875.72;10451927;28;20048;-61
2023/07/13 02:21:03;;;;;;;1.95;0.95;;;;;;;17.35;43.98;99873.00;10418606;28;20205;-61
2023/07/13 02:26:05;;;;;;;0.80;0.43;;;;;;;17.49;43.48;99869.97;10434481;28;20100;-61
2023/07/13 02:31:13;;;;;;;0.63;0.50;;;;;;;17.39;43.22;99869.13;10434160;28;20140;-61
2023/07/13 02:36:16;;;;;;;3.33;1.57;;;;;;;17.13;43.65;99875.84;10435053;28;20049;-61
2023/07/13 02:41:19;;;;;;;0.40;0.40;;;;;;;17.04;43.38;99882.75;10433448;28;20374;-61
2023/07/13 02:46:21;;;;;;;0.40;0.40;;;;;;;17.01;43.69;99875.09;10435709;28;20124;-61
2023/07/13 02:51:23;;;;;;;0.63;0.60;;;;;;;16.96;43.79;99887.88;10432969;28;20316;-61
2023/07/13 02:56:28;;;;;;;0.60;0.60;;;;;;;16.83;44.35;99889.88;10447384;28;20587;-61
2023/07/13 03:01:33;;;;;;;0.95;0.60;;;;;;;16.59;45.25;99877.97;10433006;28;20102;-61
2023/07/13 03:06:36;;;;;;;0.63;0.45;;;;;;;16.55;45.17;99893.22;10428338;28;20037;-61
2023/07/13 03:11:39;;;;;;;1.05;0.90;;;;;;;16.40;45.75;99896.28;10403148;28;20516;-61
2023/07/13 03:16:56;;;;;;;0.75;0.60;;;;;;;16.31;46.05;99899.69;10409672;28;20056;-61
2023/07/13 03:22:01;;;;;;;0.60;0.60;;;;;;;15.96;46.77;99898.19;10424929;28;20110;-60
2023/07/13 03:27:05;;;;;;;1.27;0.70;;;;;;;15.69;47.25;99902.25;10405746;28;20045;-61
2023/07/13 03:32:10;;;;;;;0.60;0.60;;;;;;;15.43;48.03;99906.94;10419814;28;20056;-61
2023/07/13 03:37:12;;;;;;;0.50;0.50;;;;;;;15.48;48.10;99915.34;10427038;28;20037;-61
2023/07/13 03:42:15;;;;;;;0.95;0.65;;;;;;;15.64;48.06;99910.53;10424895;28;20123;-61
2023/07/13 03:47:18;;;;;;;1.05;0.60;;;;;;;15.64;48.31;99918.44;10425137;28;20049;-61
2023/07/13 03:52:21;;;;;;;0.80;0.73;;;;;;;15.69;48.11;99924.19;10420956;28;20045;-61
2023/07/13 03:57:23;;;;;;;0.73;0.73;;;;;;;15.56;48.48;99920.00;10423748;28;20040;-61
2023/07/13 04:02:25;;;;;;;1.40;0.63;;;;;;;15.70;48.32;99923.22;10422604;28;20049;-61
2023/07/13 04:07:28;;;;;;;1.90;0.80;;;;;;;15.80;48.27;99926.78;10426096;28;20060;-61
2023/07/13 04:12:30;;;;;;;1.45;0.70;;;;;;;15.80;48.11;99926.78;10424776;28;20551;-61
2023/07/13 04:17:32;;;;;;;1.55;0.70;;;;;;;15.85;48.13;99935.16;10408219;28;20592;-61
2023/07/13 04:22:34;;;;;;;1.10;0.80;;;;;;;17.12;47.32;99929.63;10423831;28;20163;-61
2023/07/13 04:27:36;;;;;;;0.60;0.60;;;;;;;19.97;41.86;99923.28;10422410;28;20052;-61
2023/07/13 04:32:38;;;;;;;0.60;0.60;;;;;;;22.07;38.65;99912.81;10423532;28;20049;-61
2023/07/13 04:37:40;;;;;;;0.52;0.52;;;;;;;23.83;36.02;99905.38;10424386;28;20051;-61
2023/07/13 04:42:43;;;;;;;1.02;0.77;;;;;;;24.84;34.01;99908.56;10422778;28;20092;-62
2023/07/13 04:47:45;;;;;;;0.50;0.50;;;;;;;25.39;30.95;99903.59;10424520;28;20116;-62
2023/07/13 04:52:49;;;;;;;0.73;0.60;;;;;;;26.14;31.71;99906.72;10418501;28;20308;-62
2023/07/13 04:57:51;;;;;;;0.80;0.70;;;;;;;26.95;30.52;99903.47;10420688;28;20051;-64
2023/07/13 05:02:57;;;;;;;1.42;0.70;;;;;;;28.60;28.21;99894.88;10422068;28;20041;-62
2023/07/13 05:08:00;;;;;;;1.23;0.85;;;;;;;29.34;27.55;99892.63;10392741;28;20045;-62
2023/07/13 05:13:02;;;;;;;0.73;0.63;;;;;;;29.41;27.01;99898.84;10422652;28;20531;-62
2023/07/13 05:18:05;;;;;;;2.30;0.70;;;;;;;30.27;25.97;99906.25;10421122;28;20207;-62
2023/07/13 05:23:07;;;;;;;2.25;0.50;;;;;;;31.21;24.78;99911.44;10422410;28;20146;-62
2023/07/13 05:28:09;;;;;;;0.60;0.60;;;;;;;31.12;24.32;99901.97;10420980;28;20131;-62
2023/07/13 05:33:11;;;;;;;0.47;0.47;;;;;;;30.20;24.76;99907.34;10429874;28;20542;-62
2023/07/13 05:38:13;;;;;;;0.60;0.55;;;;;;;27.54;26.76;99922.59;10429089;28;20144;-62
2023/07/13 05:43:15;;;;;;;0.75;0.43;;;;;;;25.18;29.33;99932.13;10443503;28;20527;-62
2023/07/13 05:48:17;;;;;;;0.40;0.40;;;;;;;23.73;30.95;99931.50;10429794;28;20056;-62
2023/07/13 05:53:19;;;;;;;0.73;0.52;;;;;;;22.89;32.11;99944.63;10431366;28;20041;-61
2023/07/13 05:58:21;;;;;;;0.60;0.43;;;;;;;22.17;33.20;99934.00;10428838;28;20044;-61
2023/07/13 06:03:23;;;;;;;0.85;0.60;;;;;;;21.79;33.47;99941.56;10430353;28;20056;-61
2023/07/13 06:08:26;;;;;;;0.55;0.40;;;;;;;21.57;34.27;99942.16;10427220;28;20055;-61
2023/07/13 06:13:28;;;;;;;1.15;0.70;;;;;;;21.62;34.27;99949.66;10425342;28;20049;-61
2023/07/13 06:18:32;;;;;;;0.98;0.50;;;;;;;21.53;34.43;99953.28;10428978;28;20041;-61
2023/07/13 06:23:34;;;;;;;0.63;0.30;;;;;;;21.43;34.80;99958.75;10427961;28;20512;-61
2023/07/13 06:28:37;;;;;;;1.25;0.60;;;;;;;21.40;34.86;99959.03;10427926;28;20140;-61
2023/07/13 06:33:39;;;;;;;0.40;0.40;;;;;;;21.39;35.12;99954.72;10433476;28;20056;-61
2023/07/13 06:38:41;;;;;;;0.52;0.50;;;;;;;21.47;35.21;99957.44;10432253;28;20053;-61
2023/07/13 06:43:43;;;;;;;0.63;0.40;;;;;;;21.61;35.14;99971.94;10429136;28;20049;-62
2023/07/13 06:48:45;;;;;;;0.65;0.40;;;;;;;21.91;34.84;99971.34;10431272;28;20048;-61
2023/07/13 06:53:47;;;;;;;2.17;0.50;;;;;;;22.37;34.47;99973.44;10431070;28;20449;-62
2023/07/13 06:58:49;;;;;;;0.10;0.10;;;;;;;22.61;34.16;99965.47;10421151;28;20076;-61
2023/07/13 07:03:51;;;;;;;0.68;0.50;;;;;;;22.90;33.81;99970.31;10428780;28;20053;-61
2023/07/13 07:08:53;;;;;;;1.23;0.52;;;;;;;23.21;33.39;99973.03;10427880;28;20056;-61
2023/07/13 07:13:55;;;;;;;0.82;0.30;;;;;;;23.42;33.16;99973.34;10428112;28;20412;-61
2023/07/13 07:18:57;;;;;;;0.30;0.30;;;;;;;23.65;32.48;99976.09;10421995;28;20049;-61
2023/07/13 07:23:59;;;;;;;0.35;0.35;;;;;;;24.02;31.71;99979.72;10425234;28;20130;-61
2023/07/13 07:29:03;;;;;;;2.17;0.70;;;;;;;24.06;31.29;99978.34;10428588;28;20208;-61
2023/07/13 07:34:08;;;;;;;0.57;0.32;;;;;;;24.79;31.01;99983.19;10428723;28;20037;-61
2023/07/13 07:39:11;;;;;;;0.60;0.35;;;;;;;25.47;29.83;99975.78;10430333;28;20503;-61
2023/07/13 07:44:13;;;;;;;0.60;0.50;;;;;;;25.84;29.71;99974.81;10427710;28;20052;-62
2023/07/13 07:49:15;;;;;;;0.90;0.57;;;;;;;25.46;29.57;99979.50;10429696;28;20063;-62
2023/07/13 07:54:17;;;;;;;1.45;0.38;;;;;;;24.85;29.93;99990.50;10415053;28;20041;-61
2023/07/13 07:59:39;;;;;;;0.28;0.28;;;;;;;24.15;30.11;99981.84;10428156;28;20037;-61
2023/07/13 08:04:44;;;;;;;0.45;0.32;;;;;;;23.67;30.74;100000.78;10426676;28;20041;-61
2023/07/13 08:09:54;;;;;;;0.30;0.28;;;;;;;24.89;29.29;99989.13;10429253;28;20291;-61
2023/07/13 08:14:57;;;;;;;3.45;0.40;;;;;;;25.48;28.93;99984.66;10427777;28;20114;-61
2023/07/13 08:19:59;;;;;;;4.57;1.10;;;;;;;26.36;26.63;99988.81;10428865;28;20045;-61
2023/07/13 08:25:02;;;;;;;0.90;0.50;;;;;;;27.40;27.29;99978.09;10427728;28;20102;-62
2023/07/13 08:30:05;;;;;;;1.40;0.40;;;;;;;27.79;26.14;99968.59;10428010;28;20860;-62
2023/07/13 08:35:07;;;;;;;0.68;0.43;;;;;;;28.16;25.12;99968.06;10424539;28;20190;-62
2023/07/13 08:40:11;;;;;;;1.48;0.40;;;;;;;27.21;25.97;99973.44;10426263;28;20320;-61
2023/07/13 08:45:36;;;;;;;0.40;0.40;;;;;;;27.50;25.57;99965.13;10439590;28;20389;-61
2023/07/13 08:51:12;;;;;;;0.32;0.28;;;;;;;28.28;24.01;99961.03;10425905;28;20497;-62
2023/07/13 08:56:19;;;;;;;2.28;0.40;;;;;;;28.25;24.54;99958.78;10424245;28;20220;-62
2023/07/13 09:01:40;;;;;;;1.02;0.40;;;;;;;28.89;23.87;99956.34;10425375;28;20079;-62
2023/07/13 09:07:08;;;;;;;2.30;0.30;;;;;;;28.80;23.87;99947.66;10425960;28;20122;-62
2023/07/13 09:12:31;;;;;;;0.28;0.28;;;;;;;28.43;24.02;99950.13;10425231;28;20051;-61
2023/07/13 09:17:41;;;;;;;2.22;0.50;;;;;;;28.10;24.94;99948.19;10426215;28;20052;-61
2023/07/13 09:22:43;;;;;;;0.20;0.20;;;;;;;28.47;24.69;99962.97;10424903;28;20073;-62
2023/07/13 09:27:47;;;;;;;1.23;0.40;;;;;;;28.48;24.90;99956.56;10426832;28;20045;-62
2023/07/13 09:32:52;;;;;;;2.40;0.43;;;;;;;28.47;24.82;99959.44;10424498;28;20048;-62
2023/07/13 09:38:16;;;;;;;14.05;1.20;;;;;;;28.43;23.76;99947.44;10423378;28;20337;-61
2023/07/13 09:43:20;;;;;;;2.67;0.47;;;;;;;28.46;24.46;99941.66;10425678;28;20566;-61
2023/07/13 09:48:24;;;;;;;1.55;0.70;;;;;;;28.84;24.39;99935.47;10424867;28;20033;-62
2023/07/13 09:53:30;;;;;;;0.63;0.40;;;;;;;28.78;23.54;99941.66;10425584;28;20657;-62
2023/07/13 09:58:35;;;;;;;0.43;0.43;;;;;;;29.15;23.84;99933.94;10422945;28;20052;-62
2023/07/13 10:03:37;;;;;;;0.30;0.28;;;;;;;29.17;23.67;99935.38;10424841;28;20123;-62
2023/07/13 10:08:40;;;;;;;0.45;0.40;;;;;;;29.78;23.25;99925.00;10424198;28;20045;-62
2023/07/13 10:13:45;;;;;;;0.75;0.57;;;;;;;29.98;22.75;99925.75;10424866;28;20142;-62
2023/07/13 10:18:56;;;;;;;0.75;0.45;;;;;;;29.45;22.48;99927.84;10427334;28;20096;-61
2023/07/13 10:24:20;;;;;;;1.55;0.50;;;;;;;28.96;22.82;99933.78;10432263;28;20061;-62
2023/07/13 10:29:26;;;;;;;0.50;0.40;;;;;;;28.03;24.04;99933.09;10432759;28;20141;-62
2023/07/13 10:34:28;;;;;;;0.68;0.50;;;;;;;27.79;24.11;99942.53;10429248;28;20053;-61
2023/07/13 10:39:33;;;;;;;0.20;0.20;;;;;;;27.35;24.09;99939.44;10431399;28;20132;-61
2023/07/13 10:44:36;;;;;;;0.30;0.30;;;;;;;27.59;24.06;99941.59;10431931;28;20059;-61
2023/07/13 10:49:40;;;;;;;1.13;0.63;;;;;;;28.31;23.16;99932.94;10431509;28;20052;-62
2023/07/13 10:54:42;;;;;;;0.50;0.47;;;;;;;28.49;23.23;99930.47;10427068;28;20420;-61
2023/07/13 11:00:08;;;;;;;1.13;0.57;;;;;;;28.61;22.32;99909.97;10424901;28;20501;-62
2023/07/13 11:05:30;;;;;;;1.83;0.60;;;;;;;27.94;22.89;99937.00;10426944;28;20065;-61
2023/07/13 11:10:54;;;;;;;0.40;0.40;;;;;;;28.22;22.52;99926.91;10427265;28;20045;-62
2023/07/13 11:15:56;;;;;;;1.05;0.68;;;;;;;28.27;22.52;99937.88;10425556;28;20041;-61
2023/07/13 11:21:19;;;;;;;0.55;0.40;;;;;;;28.53;22.17;99932.53;10429690;28;20424;-61
2023/07/13 11:26:52;;;;;;;1.55;0.50;;;;;;;28.71;22.27;99927.34;10428039;28;20045;-61
2023/07/13 11:31:56;;;;;;;0.68;0.38;;;;;;;28.15;23.24;99942.22;10422543;28;20040;-62
2023/07/13 11:37:00;;;;;;;1.35;0.52;;;;;;;27.84;23.77;99933.88;10424131;28;20394;-61
2023/07/13 11:42:13;;;;;;;1.20;0.70;;;;;;;28.42;22.55;99938.53;10422936;28;20041;-61
2023/07/13 11:47:23;;;;;;;1.00;0.50;;;;;;;28.24;21.95;99939.13;10421248;28;20037;-61
2023/07/13 11:52:34;;;;;;;3.35;0.55;;;;;;;27.96;22.96;99946.50;10423329;28;20061;-62
2023/07/13 11:57:44;;;;;;;0.80;0.60;;;;;;;27.70;22.76;99948.25;10424008;28;20041;-62
2023/07/13 12:02:49;;;;;;;2.58;0.50;;;;;;;27.69;22.86;99960.84;10429291;28;20500;-62
2023/07/13 12:07:53;;;;;;;1.85;0.50;;;;;;;27.39;23.69;99954.94;10427071;28;20463;-61
2023/07/13 12:13:06;;;;;;;1.20;0.50;;;;;;;27.89;22.61;99942.97;10427995;28;20098;-61
2023/07/13 12:18:18;;;;;;;1.48;0.52;;;;;;;27.85;23.38;99949.78;10428670;28;20057;-63
2023/07/13 12:23:33;;;;;;;1.38;0.50;;;;;;;27.34;24.12;99965.44;10425338;28;20555;-60
2023/07/13 12:28:38;;;;;;;1.60;0.50;;;;;;;26.80;24.51;99983.25;10427882;28;20444;-60
2023/07/13 12:33:41;;;;;;;0.55;0.30;;;;;;;26.73;24.79;99989.59;10412149;28;20107;-60
2023/07/13 12:38:46;;;;;;;3.55;0.68;;;;;;;26.61;24.91;99986.59;10426571;28;20187;-60
2023/07/13 12:43:48;;;;;;;1.45;0.75;;;;;;;26.90;24.35;99991.78;10420848;28;20497;-60
2023/07/13 12:48:53;;;;;;;4.03;1.52;;;;;;;27.28;24.28;99994.97;10427105;28;20590;-61
2023/07/13 12:54:17;;;;;;;2.80;0.55;;;;;;;26.87;24.44;99994.88;10416964;28;20055;-60
2023/07/13 12:59:22;;;;;;;1.20;0.68;;;;;;;26.86;24.80;99995.03;10422719;28;20043;-61
2023/07/13 13:04:24;;;;;;;1.65;0.50;;;;;;;26.79;25.09;99995.03;10421738;28;20404;-61
2023/07/13 13:09:27;;;;;;;2.22;0.75;;;;;;;26.67;25.09;99999.22;10420469;28;20409;-61
2023/07/13 13:14:29;;;;;;;1.17;0.40;;;;;;;26.15;25.29;100004.88;10422471;28;20135;-61
2023/07/13 13:19:31;;;;;;;0.80;0.50;;;;;;;26.27;25.41;100005.22;10420135;28;20045;-61
2023/07/13 13:24:35;;;;;;;0.63;0.55;;;;;;;26.46;24.77;100007.28;10417723;28;20049;-61
2023/07/13 13:29:39;;;;;;;2.08;0.60;;;;;;;26.45;24.92;100005.59;10419213;28;20132;-61
2023/07/13 13:34:42;;;;;;;4.18;0.47;;;;;;;26.64;24.82;100008.50;10423226;28;20076;-61
2023/07/13 13:39:45;;;;;;;2.78;0.95;;;;;;;26.80;24.83;99999.34;10419390;28;20175;-60
2023/07/13 13:45:04;;;;;;;0.95;0.43;;;;;;;26.99;24.70;100000.53;10423372;28;20160;-59
2023/07/13 13:50:17;;;;;;;1.75;0.50;;;;;;;26.85;25.02;100002.28;10417273;28;20052;-59
2023/07/13 13:55:23;;;;;;;1.45;0.55;;;;;;;26.70;24.99;100006.91;10423057;28;20106;-59
2023/07/13 14:00:26;;;;;;;0.73;0.40;;;;;;;26.76;25.07;100011.50;10428004;28;20060;-58
2023/07/13 14:05:30;;;;;;;0.73;0.43;;;;;;;26.55;25.20;100012.34;10431727;28;20060;-59
2023/07/13 14:10:32;;;;;;;0.80;0.43;;;;;;;26.43;25.16;100013.00;10426833;28;20057;-59
2023/07/13 14:15:34;;;;;;;1.13;0.60;;;;;;;26.59;25.28;100020.81;10430435;28;20083;-59
2023/07/13 14:20:36;;;;;;;0.50;0.50;;;;;;;26.61;25.13;100018.78;10428396;28;20033;-59
2023/07/13 14:25:38;;;;;;;0.98;0.50;;;;;;;26.46;25.08;100015.31;10430046;28;20211;-58
2023/07/13 14:30:40;;;;;;;0.73;0.60;;;;;;;26.31;25.08;100018.06;10428288;28;20442;-58
2023/07/13 14:35:42;;;;;;;0.57;0.57;;;;;;;26.44;25.33;100022.72;10427859;28;20041;-58
2023/07/13 14:40:44;;;;;;;55.63;5.47;;;;;;;26.66;25.37;100019.03;10427549;28;20544;-58
2023/07/13 14:45:50;;;;;;;1.02;0.60;;;;;;;26.65;24.99;100017.38;10428557;28;20082;-59
2023/07/13 14:50:57;;;;;;;2.67;0.80;;;;;;;26.81;24.42;100006.38;10427176;28;20045;-59
2023/07/13 14:55:59;;;;;;;0.63;0.50;;;;;;;26.64;24.98;100016.56;10418706;28;20420;-59
2023/07/13 15:01:01;;;;;;;2.47;1.08;;;;;;;26.38;25.21;100008.25;10426671;28;20055;-59
2023/07/13 15:06:04;;;;;;;0.93;0.50;;;;;;;26.38;25.05;100018.97;10423772;28;20128;-59
2023/07/13 15:11:12;;;;;;;1.02;0.60;;;;;;;26.31;24.93;100019.91;10426129;28;20345;-58
2023/07/13 15:16:23;;;;;;;2.15;0.43;;;;;;;26.49;25.38;100010.41;10422198;28;20407;-58
2023/07/13 15:21:27;;;;;;;0.73;0.55;;;;;;;26.81;25.18;100006.38;10427246;28;20469;-58
2023/07/13 15:26:30;;;;;;;1.20;0.68;;;;;;;27.31;24.74;100002.63;10423152;28;20186;-58
2023/07/13 15:31:34;;;;;;;0.90;0.65;;;;;;;27.35;24.58;99996.66;10424519;28;20183;-58
2023/07/13 15:36:36;;;;;;;1.27;0.50;;;;;;;26.87;25.13;100002.09;10423854;28;20041;-58
2023/07/13 15:41:41;;;;;;;1.83;0.57;;;;;;;27.14;24.87;99987.81;10424778;28;20053;-59
2023/07/13 15:46:44;;;;;;;0.65;0.50;;;;;;;27.00;24.81;99996.81;10422106;28;20056;-58
2023/07/13 15:51:48;;;;;;;0.50;0.47;;;;;;;26.53;25.13;100002.78;10425245;28;20624;-59
2023/07/13 15:56:55;;;;;;;1.27;0.32;;;;;;;26.43;25.11;99995.06;10420316;28;20067;-59
2023/07/13 16:01:57;;;;;;;1.30;0.70;;;;;;;26.49;25.37;99993.47;10421643;28;20049;-59
2023/07/13 16:06:59;;;;;;;0.73;0.57;;;;;;;26.41;25.46;99994.44;10417592;28;20041;-58
2023/07/13 16:12:02;;;;;;;0.38;0.38;;;;;;;26.72;25.21;99980.69;10420007;28;20044;-61
2023/07/13 16:17:05;;;;;;;0.35;0.35;;;;;;;26.66;25.12;99979.63;10418590;28;20563;-60
2023/07/13 16:22:19;;;;;;;4.35;0.65;;;;;;;26.10;25.60;99985.84;10419437;28;20500;-61
2023/07/13 16:27:23;;;;;;;1.02;0.40;;;;;;;25.81;26.07;99988.59;10424215;28;20192;-60
2023/07/13 16:32:26;;;;;;;1.05;0.60;;;;;;;25.90;26.01;99995.50;10422575;28;20363;-61
2023/07/13 16:37:29;;;;;;;0.65;0.40;;;;;;;26.05;26.11;99988.28;10412240;28;20045;-61
2023/07/13 16:42:31;;;;;;;0.57;0.32;;;;;;;26.19;26.01;99982.03;10415260;28;20133;-62
2023/07/13 16:47:33;;;;;;;0.50;0.50;;;;;;;25.98;26.35;99986.56;10418750;28;20053;-62
2023/07/13 16:52:35;;;;;;;66.60;5.07;;;;;;;25.87;26.38;99996.69;10421784;28;20179;-62
2023/07/13 16:57:37;;;;;;;48.97;3.20;;;;;;;25.57;26.59;99989.72;10417979;28;20423;-62
2023/07/13 17:02:39;;;;;;;125.53;7.68;;;;;;;25.43;27.09;99992.41;10422498;28;20084;-62
2023/07/13 17:07:45;;;;;;;2.88;0.90;;;;;;;25.56;27.25;99993.44;10419730;28;20057;-52
2023/07/13 17:12:52;;;;;;;0.40;0.40;;;;;;;25.89;26.93;99983.13;10421845;28;20420;-53
2023/07/13 17:18:03;;;;;;;1.55;0.60;;;;;;;25.89;26.82;99983.94;10419978;28;20080;-52
2023/07/13 17:23:12;;;;;;;0.95;0.68;;;;;;;25.74;27.23;99985.84;10417121;28;20524;-54
2023/07/13 17:28:15;;;;;;;0.47;0.40;;;;;;;25.65;27.58;99994.97;10420630;28;20438;-57
2023/07/13 17:33:27;;;;;;;0.75;0.57;;;;;;;25.41;28.46;99994.44;10429714;28;20191;-54
2023/07/13 17:38:39;;;;;;;0.95;0.40;;;;;;;25.46;27.47;99998.25;10427610;28;20470;-57
2023/07/13 17:43:44;;;;;;;0.77;0.55;;;;;;;25.42;27.59;99996.97;10412744;28;20044;-57
2023/07/13 17:48:49;;;;;;;0.88;0.70;;;;;;;25.63;27.42;99998.88;10428475;28;20125;-57
2023/07/13 17:53:51;;;;;;;1.58;0.70;;;;;;;25.77;27.21;99996.16;10426564;28;20139;-57
2023/07/13 17:58:53;;;;;;;1.95;0.57;;;;;;;25.86;27.06;100005.75;10424526;28;20493;-58
2023/07/13 18:03:57;;;;;;;3.03;0.80;;;;;;;25.66;27.04;100010.06;10428760;28;20600;-60
2023/07/13 18:09:01;;;;;;;2.38;0.95;;;;;;;25.38;27.33;100009.06;10423884;28;20436;-60
2023/07/13 18:14:12;;;;;;;0.40;0.40;;;;;;;24.86;27.85;100003.69;10425970;28;20157;-61
2023/07/13 18:19:33;;;;;;;1.17;0.55;;;;;;;24.40;28.23;100004.72;10424069;28;20573;-59
2023/07/13 18:24:36;;;;;;;1.50;0.90;;;;;;;24.25;28.52;100010.00;10427723;28;20235;-61
2023/07/13 18:29:38;;;;;;;1.30;0.63;;;;;;;23.97;28.96;100010.66;10424869;28;20053;-61
2023/07/13 18:34:42;;;;;;;1.02;0.93;;;;;;;23.75;29.20;100014.94;10427302;28;20493;-61
2023/07/13 18:39:52;;;;;;;0.75;0.50;;;;;;;23.83;29.63;100016.72;10424256;28;20096;-60
2023/07/13 18:44:56;;;;;;;0.77;0.50;;;;;;;23.66;29.59;100007.94;10425988;28;20470;-60
2023/07/13 18:49:58;;;;;;;1.17;0.70;;;;;;;23.66;29.51;100007.94;10426761;28;20067;-60
2023/07/13 18:55:00;;;;;;;0.52;0.50;;;;;;;23.51;29.59;100017.72;10420775;28;20459;-60
2023/07/13 19:00:03;;;;;;;0.40;0.40;;;;;;;23.37;30.00;100026.41;10423938;28;20049;-60
2023/07/13 19:05:13;;;;;;;0.52;0.40;;;;;;;23.29;30.54;100039.72;10425292;28;20292;-60
2023/07/13 19:10:24;;;;;;;0.90;0.32;;;;;;;23.24;30.62;100026.09;10422848;28;20122;-60
2023/07/13 19:15:32;;;;;;;1.05;0.80;;;;;;;23.14;30.63;100036.13;10426258;28;20044;-60
2023/07/13 19:20:34;;;;;;;1.10;0.70;;;;;;;23.05;30.68;100039.78;10420732;28;20618;-60
2023/07/13 19:25:37;;;;;;;11.50;1.10;;;;;;;23.06;30.80;100038.78;10427383;28;20582;-60
2023/07/13 19:30:39;;;;;;;3.00;0.80;;;;;;;22.99;31.00;100046.63;10423574;28;20063;-59
2023/07/13 19:35:43;;;;;;;0.45;0.45;;;;;;;22.77;31.28;100075.81;10426472;28;20051;-59
2023/07/13 19:40:45;;;;;;;0.68;0.45;;;;;;;22.60;31.74;100074.91;10424588;28;20045;-59
2023/07/13 19:45:47;;;;;;;0.32;0.30;;;;;;;22.40;32.25;100074.41;10422910;28;20091;-59
2023/07/13 19:50:49;;;;;;;0.95;0.52;;;;;;;22.09;32.89;100097.28;10423403;28;20124;-59
2023/07/13 19:55:51;;;;;;;1.42;0.60;;;;;;;21.98;33.31;100102.03;10424284;28;20045;-59
2023/07/13 20:00:55;;;;;;;2.80;0.90;;;;;;;21.73;33.81;100111.75;10422292;28;21076;-59
2023/07/13 20:05:58;;;;;;;1.65;0.73;;;;;;;21.47;34.19;100116.25;10423751;28;20434;-58
2023/07/13 20:11:00;;;;;;;0.60;0.60;;;;;;;21.27;34.91;100118.25;10424242;28;20333;-59
2023/07/13 20:16:02;;;;;;;1.27;0.60;;;;;;;21.16;35.56;100125.63;10422779;28;20048;-59
2023/07/13 20:21:05;;;;;;;0.40;0.30;;;;;;;21.07;35.63;100130.88;10419237;28;20056;-58
2023/07/13 20:26:09;;;;;;;1.45;0.80;;;;;;;21.03;36.07;100140.16;10422871;28;20041;-58
2023/07/13 20:31:14;;;;;;;0.85;0.68;;;;;;;20.87;36.77;100140.00;10426445;28;20052;-58
2023/07/13 20:36:16;;;;;;;2.47;1.20;;;;;;;20.72;36.87;100144.16;10421874;28;20378;-59
2023/07/13 20:41:18;;;;;;;1.73;0.80;;;;;;;20.56;36.94;100146.63;10426652;28;20051;-58
2023/07/13 20:46:21;;;;;;;2.70;0.93;;;;;;;20.30;37.67;100151.00;10425025;28;20040;-58
2023/07/13 20:51:23;;;;;;;1.25;1.05;;;;;;;20.06;37.96;100158.66;10427088;28;20045;-58
2023/07/13 20:56:28;;;;;;;1.50;1.02;;;;;;;19.68;38.73;100166.72;10425435;28;20064;-58
2023/07/13 21:01:37;;;;;;;0.77;0.68;;;;;;;19.87;40.02;100154.25;10425774;28;20052;-58
2023/07/13 21:06:39;;;;;;;0.70;0.70;;;;;;;19.80;39.05;100152.31;10425785;28;20037;-58
2023/07/13 21:11:41;;;;;;;2.60;0.60;;;;;;;19.57;39.72;100150.97;10420882;28;20052;-59
2023/07/13 21:16:43;;;;;;;3.22;1.05;;;;;;;19.59;39.95;100159.63;10420810;28;20053;-58
2023/07/13 21:21:45;;;;;;;1.33;0.73;;;;;;;19.69;40.08;100173.69;10418564;28;20048;-58
2023/07/13 21:26:47;;;;;;;1.67;0.88;;;;;;;19.64;40.08;100171.50;10419060;28;20051;-59
2023/07/13 21:31:51;;;;;;;1.55;1.10;;;;;;;19.40;40.92;100187.84;10422197;28;20504;-58
2023/07/13 21:36:58;;;;;;;2.95;1.02;;;;;;;19.27;40.81;100187.34;10421530;28;20056;-58
2023/07/13 21:42:01;;;;;;;4.57;1.58;;;;;;;19.32;40.86;100190.38;10421667;28;20071;-58
2023/07/13 21:47:03;;;;;;;2.45;1.30;;;;;;;19.38;41.22;100196.94;10419413;28;20053;-58
2023/07/13 21:52:16;;;;;;;4.57;1.75;;;;;;;19.34;41.89;100201.69;10419761;28;20045;-59
2023/07/13 21:57:18;;;;;;;1.05;0.85;;;;;;;19.27;41.64;100192.63;10423658;28;20045;-59
2023/07/13 22:02:20;;;;;;;2.15;0.90;;;;;;;19.43;41.33;100200.00;10422367;28;20155;-59
2023/07/13 22:07:22;;;;;;;1.20;1.08;;;;;;;19.54;41.53;100197.22;10423077;28;20045;-58
2023/07/13 22:12:24;;;;;;;1.77;1.20;;;;;;;19.54;41.66;100201.69;10420495;28;20045;-58
2023/07/13 22:17:26;;;;;;;1.42;0.90;;;;;;;19.45;41.74;100204.19;10429622;28;20136;-59
2023/07/13 22:22:28;;;;;;;1.77;0.90;;;;;;;19.35;41.96;100206.03;10431071;28;20080;-58
2023/07/13 22:27:31;;;;;;;2.28;1.10;;;;;;;19.36;42.00;100197.06;10429501;28;20571;-58
2023/07/13 22:32:33;;;;;;;1.13;0.73;;;;;;;19.34;41.96;100207.00;10431705;28;20052;-58
2023/07/13 22:37:36;;;;;;;1.15;1.02;;;;;;;19.17;42.06;100204.22;10432488;28;20520;-58
2023/07/13 22:42:38;;;;;;;1.75;0.80;;;;;;;18.82;42.90;100195.91;10430764;28;20048;-58
2023/07/13 22:47:41;;;;;;;1.48;0.90;;;;;;;18.86;43.09;100199.97;10430978;28;20049;-58
2023/07/13 22:52:43;;;;;;;1.52;1.02;;;;;;;18.93;43.07;100201.91;10417068;28;20409;-58
2023/07/13 22:57:49;;;;;;;0.90;0.77;;;;;;;18.97;43.36;100199.84;10430571;28;20045;-58
2023/07/13 23:02:51;;;;;;;1.13;0.80;;;;;;;18.90;43.04;100202.22;10429530;28;20487;-58
2023/07/13 23:07:53;;;;;;;1.27;0.90;;;;;;;18.74;43.35;100204.56;10431502;28;20045;-59
2023/07/13 23:13:02;;;;;;;2.75;0.98;;;;;;;18.30;44.22;100200.53;10429102;28;20310;-59
2023/07/13 23:18:05;;;;;;;0.70;0.70;;;;;;;17.90;44.96;100198.78;10424729;28;20076;-58
2023/07/13 23:23:18;;;;;;;0.93;0.75;;;;;;;17.93;45.96;100195.88;10428647;28;20536;-58
2023/07/13 23:28:20;;;;;;;2.67;1.00;;;;;;;17.90;45.39;100196.13;10426913;28;20072;-58
2023/07/13 23:33:26;;;;;;;1.85;1.08;;;;;;;17.84;45.80;100185.13;10428241;28;20139;-58